Time;durP1;ratioP1;P1;durP2;ratioP2;P2;SDS_P1;SDS_P2;PMS_P1;PMS_P2;Temp;Humidity;BMP_temperature;BMP_pressure;BME280_temperature;BME280_humidity;BME280_pressure;Samples;Min_cycle;Max_cycle;Signal;HPM_P1;HPM_P2
2022/05/01 00:01:43;;;;;;;3.63;2.30;;;25.50;55.20;;;;;;5101109;28;20031;-53
2022/05/01 00:04:10;;;;;;;3.83;2.10;;;25.50;55.30;;;;;;5103864;28;20725;-54
2022/05/01 00:06:36;;;;;;;2.45;2.25;;;25.50;55.30;;;;;;5101666;28;20028;-55
2022/05/01 00:09:03;;;;;;;4.28;2.40;;;25.50;55.20;;;;;;5091203;28;20036;-52
2022/05/01 00:11:30;;;;;;;2.67;2.20;;;25.50;55.20;;;;;;5098942;28;20032;-56
2022/05/01 00:13:57;;;;;;;2.67;2.20;;;25.60;55.20;;;;;;5096120;28;20042;-55
2022/05/01 00:16:23;;;;;;;3.95;2.50;;;25.60;55.20;;;;;;5091354;28;20028;-56
2022/05/01 00:18:49;;;;;;;3.42;2.45;;;25.60;55.20;;;;;;5095758;28;20024;-56
2022/05/01 00:21:15;;;;;;;6.43;2.38;;;25.60;55.30;;;;;;5098566;28;20142;-55
2022/05/01 00:23:42;;;;;;;2.80;2.47;;;25.60;55.20;;;;;;5104882;28;20053;-54
2022/05/01 00:26:08;;;;;;;3.00;2.20;;;25.60;55.20;;;;;;5103430;28;20056;-51
2022/05/01 00:28:38;;;;;;;2.75;2.22;;;25.60;55.20;;;;;;5103384;28;20043;-52
2022/05/01 00:31:05;;;;;;;4.35;2.90;;;25.60;55.20;;;;;;5092819;28;20067;-54
2022/05/01 00:36:25;;;;;;;4.20;2.45;;;25.60;55.10;;;;;;5090011;28;20582;-52
2022/05/01 00:38:53;;;;;;;3.90;2.28;;;25.60;55.10;;;;;;5103902;28;20028;-54
2022/05/01 00:41:21;;;;;;;3.03;2.35;;;25.60;55.10;;;;;;5084360;28;20081;-56
2022/05/01 00:44:01;;;;;;;5.43;2.90;;;25.60;55.10;;;;;;5089701;28;20039;-57
2022/05/01 00:46:30;;;;;;;2.97;2.28;;;25.70;55.20;;;;;;5104377;28;20035;-56
2022/05/01 00:48:57;;;;;;;4.00;2.55;;;25.60;55.10;;;;;;5102087;28;20028;-55
2022/05/01 00:51:24;;;;;;;;;;;25.70;55.10;;;;;;5103028;28;20036;-57
2022/05/01 00:53:51;;;;;;;3.60;2.65;;;25.70;55.00;;;;;;5122117;28;19908;-56
2022/05/01 00:56:17;;;;;;;4.87;2.50;;;25.70;55.00;;;;;;5103138;28;20034;-57
2022/05/01 00:58:43;;;;;;;3.30;2.38;;;25.70;55.00;;;;;;5103173;28;20028;-56
2022/05/01 01:01:11;;;;;;;3.58;2.30;;;25.70;54.90;;;;;;5088364;28;20038;-55
2022/05/01 01:03:37;;;;;;;2.55;2.33;;;25.70;54.90;;;;;;5095723;28;20025;-54
2022/05/01 01:06:03;;;;;;;3.72;2.50;;;25.70;54.90;;;;;;5088471;28;20067;-54
2022/05/01 01:08:30;;;;;;;4.03;2.70;;;25.70;54.80;;;;;;5097784;28;20078;-56
2022/05/01 01:10:56;;;;;;;3.10;2.40;;;25.70;54.80;;;;;;5090449;28;20035;-57
2022/05/01 01:13:28;;;;;;;3.65;2.47;;;25.70;54.80;;;;;;5101143;28;20024;-58
2022/05/01 01:15:55;;;;;;;3.55;2.50;;;25.70;54.70;;;;;;5094113;28;20033;-56
2022/05/01 01:18:24;;;;;;;2.53;2.10;;;25.70;54.60;;;;;;5099813;28;20048;-55
2022/05/01 01:20:54;;;;;;;3.60;2.35;;;25.70;54.60;;;;;;5089970;28;20036;-56
2022/05/01 01:23:21;;;;;;;3.35;2.33;;;25.70;54.50;;;;;;5099116;28;20032;-55
2022/05/01 01:25:47;;;;;;;2.50;2.28;;;25.70;54.50;;;;;;5097371;28;20481;-58
2022/05/01 01:28:13;;;;;;;4.88;2.55;;;25.80;54.40;;;;;;5097769;28;20052;-56
2022/05/01 01:33:25;;;;;;;2.70;2.10;;;25.70;54.40;;;;;;5078268;28;20077;-55
2022/05/01 01:35:51;;;;;;;3.30;2.40;;;25.70;54.30;;;;;;5087674;28;20037;-55
2022/05/01 01:38:17;;;;;;;3.53;1.90;;;25.70;54.30;;;;;;5092765;28;20035;-57
2022/05/01 01:40:50;;;;;;;2.73;2.07;;;25.70;54.30;;;;;;5083160;28;20029;-55
2022/05/01 01:43:23;;;;;;;4.45;2.10;;;25.80;54.20;;;;;;5091198;28;20028;-54
2022/05/01 01:45:49;;;;;;;3.30;2.28;;;25.80;54.20;;;;;;5101582;28;20028;-56
2022/05/01 01:48:17;;;;;;;2.63;2.10;;;25.80;54.10;;;;;;5098677;28;20040;-55
2022/05/01 01:50:44;;;;;;;5.20;2.03;;;25.80;54.10;;;;;;5093698;28;20022;-55
2022/05/01 01:53:11;;;;;;;2.10;1.90;;;25.80;54.20;;;;;;5092128;28;20034;-54
2022/05/01 01:55:38;;;;;;;2.03;1.90;;;25.80;54.10;;;;;;5093309;28;20099;-54
2022/05/01 01:58:07;;;;;;;2.90;2.08;;;25.70;54.00;;;;;;5099910;28;20032;-54
2022/05/01 02:00:33;;;;;;;2.28;1.85;;;25.80;54.00;;;;;;5091693;28;20024;-52
2022/05/01 02:03:00;;;;;;;2.67;2.00;;;25.80;54.00;;;;;;5101419;28;20052;-55
2022/05/01 02:05:27;;;;;;;2.22;1.90;;;25.70;54.00;;;;;;5087047;28;20055;-54
2022/05/01 02:07:53;;;;;;;2.28;2.08;;;25.80;54.00;;;;;;5095759;28;20124;-55
2022/05/01 02:10:20;;;;;;;4.07;2.10;;;25.70;54.00;;;;;;5096987;28;21887;-54
2022/05/01 02:12:48;;;;;;;2.47;1.80;;;25.80;54.00;;;;;;5095908;28;20069;-55
2022/05/01 02:15:15;;;;;;;2.05;1.85;;;25.70;54.00;;;;;;5101902;28;20089;-56
2022/05/01 02:17:42;;;;;;;2.35;1.85;;;25.70;54.00;;;;;;5101164;28;20060;-58
2022/05/01 02:20:08;;;;;;;2.35;1.90;;;25.70;53.90;;;;;;5095492;28;20016;-58
2022/05/01 02:22:41;;;;;;;2.13;1.88;;;25.70;54.00;;;;;;5104353;28;20048;-56
2022/05/01 02:25:08;;;;;;;2.33;2.13;;;25.70;53.90;;;;;;5101531;28;20032;-55
2022/05/01 02:27:37;;;;;;;2.17;1.80;;;25.70;53.90;;;;;;5094492;28;20034;-55
2022/05/01 02:30:05;;;;;;;2.13;1.70;;;25.70;53.90;;;;;;5086848;28;20756;-56
2022/05/01 02:32:31;;;;;;;1.95;1.80;;;25.70;53.90;;;;;;5090746;28;20027;-55
2022/05/01 02:34:57;;;;;;;2.10;1.90;;;25.70;53.90;;;;;;5096993;28;20771;-54
2022/05/01 02:37:23;;;;;;;2.75;1.92;;;25.70;53.90;;;;;;5096120;28;20024;-51
2022/05/01 02:39:50;;;;;;;3.05;1.73;;;25.70;53.90;;;;;;5096981;28;20028;-55
2022/05/01 02:42:19;;;;;;;2.22;1.80;;;25.70;53.90;;;;;;5097774;28;20025;-53
2022/05/01 02:44:45;;;;;;;2.00;1.80;;;25.70;54.40;;;;;;5105017;28;20627;-49
2022/05/01 02:47:11;;;;;;;2.50;2.15;;;25.70;53.90;;;;;;5100859;28;20044;-53
2022/05/01 02:49:40;;;;;;;2.33;1.80;;;25.70;53.80;;;;;;5101293;28;20031;-50
2022/05/01 02:52:07;;;;;;;2.22;1.73;;;25.70;53.80;;;;;;5101978;28;20038;-55
2022/05/01 02:54:33;;;;;;;2.10;1.70;;;25.60;53.70;;;;;;5098458;28;20028;-51
2022/05/01 02:57:00;;;;;;;2.20;2.00;;;25.70;53.80;;;;;;5093074;28;20047;-57
2022/05/01 02:59:26;;;;;;;2.38;2.00;;;25.60;53.70;;;;;;5090007;28;20785;-57
2022/05/01 03:01:52;;;;;;;2.15;1.80;;;25.60;53.70;;;;;;5118561;28;20031;-57
2022/05/01 03:04:19;;;;;;;2.00;1.80;;;25.60;53.70;;;;;;5110538;28;20024;-57
2022/05/01 03:06:45;;;;;;;;;;;25.60;53.70;;;;;;5101285;28;20780;-50
2022/05/01 03:09:11;;;;;;;2.28;1.85;;;25.60;53.70;;;;;;5107242;28;19963;-52
2022/05/01 03:11:38;;;;;;;2.03;1.80;;;25.60;53.70;;;;;;5105211;28;20044;-51
2022/05/01 03:14:04;;;;;;;1.90;1.65;;;25.60;53.70;;;;;;5089824;28;20032;-54
2022/05/01 03:16:30;;;;;;;2.43;1.53;;;25.60;53.70;;;;;;5093743;28;20169;-54
2022/05/01 03:24:26;;;;;;;2.00;1.80;;;25.60;53.80;;;;;;5101631;28;20036;-51
2022/05/01 03:26:52;;;;;;;2.15;1.73;;;25.60;53.70;;;;;;5098941;28;20078;-54
2022/05/01 03:29:18;;;;;;;2.65;1.70;;;25.60;53.80;;;;;;5101563;28;20040;-52
2022/05/01 03:31:46;;;;;;;2.05;1.70;;;25.50;53.70;;;;;;5096049;28;20312;-52
2022/05/01 03:34:14;;;;;;;2.50;1.75;;;25.50;53.80;;;;;;5082456;28;20055;-52
2022/05/01 03:36:40;;;;;;;1.33;1.23;;;25.50;53.80;;;;;;5096674;28;20099;-50
2022/05/01 03:39:06;;;;;;;1.80;1.70;;;25.50;53.80;;;;;;5101677;28;20028;-52
2022/05/01 03:41:33;;;;;;;1.95;1.60;;;25.50;53.80;;;;;;5098029;28;20035;-50
2022/05/01 03:43:59;;;;;;;1.88;1.60;;;25.50;53.80;;;;;;5092723;28;20033;-54
2022/05/01 03:46:25;;;;;;;2.28;2.08;;;25.50;53.90;;;;;;5084404;28;20025;-53
2022/05/01 03:48:51;;;;;;;2.15;1.77;;;25.50;53.90;;;;;;5085441;28;20101;-54
2022/05/01 03:51:18;;;;;;;2.38;1.80;;;25.40;53.90;;;;;;5102483;28;20032;-55
2022/05/01 03:53:47;;;;;;;2.30;2.10;;;25.50;53.90;;;;;;5105438;28;20096;-54
2022/05/01 03:56:13;;;;;;;2.13;1.80;;;25.40;53.90;;;;;;5100759;28;20034;-54
2022/05/01 03:58:40;;;;;;;2.10;1.90;;;25.40;53.90;;;;;;5105027;28;20054;-55
2022/05/01 04:01:07;;;;;;;2.25;1.77;;;25.40;53.90;;;;;;5104453;28;20268;-54
2022/05/01 04:03:34;;;;;;;2.45;2.20;;;25.40;54.00;;;;;;5084736;28;20039;-56
2022/05/01 04:06:00;;;;;;;1.73;1.50;;;25.40;54.00;;;;;;5078554;28;20079;-52
2022/05/01 04:08:26;;;;;;;2.67;1.60;;;25.40;54.00;;;;;;5082844;28;20666;-56
2022/05/01 04:10:52;;;;;;;1.70;1.60;;;25.40;54.00;;;;;;5065079;28;20136;-55
2022/05/01 04:13:18;;;;;;;1.88;1.77;;;25.40;54.20;;;;;;5081493;28;20100;-55
2022/05/01 04:15:44;;;;;;;2.95;2.15;;;25.40;54.50;;;;;;5077014;28;20035;-54
2022/05/01 04:18:12;;;;;;;2.22;1.90;;;25.40;54.00;;;;;;5065413;28;20040;-55
2022/05/01 04:20:38;;;;;;;1.80;1.55;;;25.40;54.00;;;;;;5084423;28;20092;-52
2022/05/01 04:23:08;;;;;;;1.95;1.75;;;25.40;54.00;;;;;;5086253;28;20028;-55
2022/05/01 04:25:34;;;;;;;2.10;1.83;;;25.40;54.00;;;;;;5082140;28;20067;-54
2022/05/01 04:28:04;;;;;;;2.00;1.80;;;25.40;54.00;;;;;;5084922;28;21051;-51
2022/05/01 04:30:34;;;;;;;1.70;1.52;;;25.40;54.00;;;;;;5079760;28;20037;-58
2022/05/01 04:33:06;;;;;;;2.22;1.70;;;25.30;53.90;;;;;;5066397;28;20029;-57
2022/05/01 04:35:34;;;;;;;1.85;1.75;;;25.30;53.90;;;;;;5075576;28;20036;-58
2022/05/01 04:38:07;;;;;;;2.90;1.60;;;25.30;54.00;;;;;;5080713;28;20037;-53
2022/05/01 04:40:35;;;;;;;2.05;1.85;;;25.30;53.90;;;;;;5096268;28;20174;-56
2022/05/01 04:43:28;;;;;;;1.98;1.65;;;25.30;54.00;;;;;;5096463;28;20519;-54
2022/05/01 04:45:56;;;;;;;2.13;1.70;;;25.30;53.90;;;;;;5071123;28;20071;-55
2022/05/01 04:48:23;;;;;;;2.30;1.77;;;25.30;54.00;;;;;;5066425;28;20048;-52
2022/05/01 04:50:49;;;;;;;1.85;1.75;;;25.30;54.00;;;;;;5074286;28;20021;-53
2022/05/01 04:53:16;;;;;;;2.17;1.93;;;25.30;54.00;;;;;;5075057;28;20052;-52
2022/05/01 04:55:43;;;;;;;;;;;25.30;54.00;;;;;;5079017;28;20274;-56
2022/05/01 04:58:09;;;;;;;3.33;1.60;;;25.30;54.10;;;;;;5082556;28;19919;-54
2022/05/01 05:00:35;;;;;;;2.10;1.63;;;25.20;54.00;;;;;;5072166;28;20088;-54
2022/05/01 05:03:02;;;;;;;2.17;1.97;;;25.20;54.10;;;;;;5078260;28;20032;-57
2022/05/01 05:05:29;;;;;;;3.88;1.90;;;25.20;54.10;;;;;;5078580;28;20078;-50
2022/05/01 05:07:55;;;;;;;2.22;1.60;;;25.20;54.10;;;;;;5107977;28;20056;-55
2022/05/01 05:10:21;;;;;;;1.93;1.80;;;25.20;54.10;;;;;;5098151;28;20358;-55
2022/05/01 05:12:48;;;;;;;1.95;1.77;;;25.20;54.00;;;;;;5103911;28;20802;-55
2022/05/01 05:15:16;;;;;;;2.10;1.77;;;25.20;54.00;;;;;;5103026;28;20042;-55
2022/05/01 05:17:43;;;;;;;2.22;1.80;;;25.20;54.10;;;;;;5098480;28;20062;-56
2022/05/01 05:20:11;;;;;;;2.38;1.77;;;25.20;54.00;;;;;;5100468;28;20091;-57
2022/05/01 05:22:37;;;;;;;1.98;1.77;;;25.20;54.10;;;;;;5093368;28;20049;-57
2022/05/01 05:25:04;;;;;;;2.05;1.77;;;25.20;54.00;;;;;;5121065;28;20027;-58
2022/05/01 05:27:30;;;;;;;2.08;1.80;;;25.20;54.10;;;;;;5102711;28;20115;-56
2022/05/01 05:29:56;;;;;;;2.25;2.05;;;25.10;54.00;;;;;;5092044;28;20117;-52
2022/05/01 05:32:24;;;;;;;2.70;1.92;;;25.10;54.00;;;;;;5101072;28;20028;-54
2022/05/01 05:34:50;;;;;;;2.20;2.00;;;25.10;54.00;;;;;;5102549;28;20062;-53
2022/05/01 05:37:17;;;;;;;2.58;1.98;;;25.10;54.00;;;;;;5097766;28;20048;-54
2022/05/01 05:39:43;;;;;;;2.55;1.73;;;25.10;54.00;;;;;;5066334;28;20032;-54
2022/05/01 05:42:09;;;;;;;3.70;1.80;;;25.10;54.00;;;;;;5085492;28;20063;-54
2022/05/01 05:44:36;;;;;;;3.20;1.80;;;25.10;54.00;;;;;;5096789;28;20028;-54
2022/05/01 05:47:02;;;;;;;2.75;2.20;;;25.10;54.10;;;;;;5104641;28;20028;-54
2022/05/01 05:49:28;;;;;;;3.60;2.10;;;25.10;54.00;;;;;;5097019;28;20028;-56
2022/05/01 05:51:54;;;;;;;88.00;35.97;;;25.00;53.20;;;;;;5101993;28;20028;-57
2022/05/01 05:54:20;;;;;;;15.70;6.38;;;25.00;53.40;;;;;;5102818;28;20039;-56
2022/05/01 05:56:46;;;;;;;14.07;5.07;;;25.00;53.40;;;;;;5101439;28;20568;-58
2022/05/01 05:59:12;;;;;;;12.98;5.05;;;25.00;53.40;;;;;;5104585;28;20036;-58
2022/05/01 06:01:39;;;;;;;9.18;4.75;;;25.00;53.50;;;;;;5096228;28;20028;-57
2022/05/01 06:04:05;;;;;;;10.18;4.53;;;24.90;53.40;;;;;;5091922;28;20055;-57
2022/05/01 06:06:31;;;;;;;9.18;4.70;;;24.90;53.50;;;;;;5090411;28;20024;-58
2022/05/01 06:08:57;;;;;;;8.27;4.50;;;24.90;53.40;;;;;;5098966;28;20070;-57
2022/05/01 06:11:23;;;;;;;8.48;4.38;;;24.90;53.50;;;;;;5101757;28;20484;-58
2022/05/01 06:13:51;;;;;;;7.13;4.25;;;24.80;53.40;;;;;;5103036;28;20032;-58
2022/05/01 06:16:17;;;;;;;6.53;3.80;;;24.80;53.50;;;;;;5100571;28;20126;-57
2022/05/01 06:18:43;;;;;;;12.40;4.22;;;24.80;53.40;;;;;;5098329;28;20598;-55
2022/05/01 06:21:10;;;;;;;7.00;3.78;;;24.80;53.40;;;;;;5087709;28;20035;-57
2022/05/01 06:23:36;;;;;;;8.98;3.92;;;24.70;53.40;;;;;;5100905;28;20036;-52
2022/05/01 06:26:04;;;;;;;5.85;3.45;;;24.80;53.50;;;;;;5097241;28;20020;-55
2022/05/01 06:28:30;;;;;;;6.53;3.45;;;24.70;53.50;;;;;;5097860;28;20818;-50
2022/05/01 06:30:57;;;;;;;6.07;3.30;;;24.70;53.60;;;;;;5095105;28;20047;-51
2022/05/01 06:33:23;;;;;;;7.47;3.38;;;24.70;53.60;;;;;;5080626;28;20032;-55
2022/05/01 06:35:53;;;;;;;4.83;3.20;;;24.70;53.70;;;;;;5096310;28;20067;-57
2022/05/01 06:38:19;;;;;;;6.60;3.03;;;24.70;53.70;;;;;;5098576;28;20264;-56
2022/05/01 06:40:46;;;;;;;3.67;2.85;;;24.70;53.70;;;;;;5099605;28;20024;-58
2022/05/01 06:43:14;;;;;;;5.22;2.85;;;24.60;53.60;;;;;;5101687;28;20051;-55
2022/05/01 06:45:45;;;;;;;4.50;2.85;;;24.60;53.70;;;;;;5099165;28;20043;-52
2022/05/01 06:48:11;;;;;;;6.65;3.10;;;24.60;53.70;;;;;;5099003;28;20040;-53
2022/05/01 06:50:37;;;;;;;5.78;2.63;;;24.60;53.70;;;;;;5085629;28;20026;-54
2022/05/01 06:53:04;;;;;;;4.78;2.65;;;24.60;53.80;;;;;;5099729;28;20117;-57
2022/05/01 06:55:30;;;;;;;3.72;2.83;;;24.50;53.70;;;;;;5100376;28;20063;-57
2022/05/01 06:57:57;;;;;;;5.53;3.10;;;24.50;53.70;;;;;;5101048;28;20038;-57
2022/05/01 07:00:23;;;;;;;5.25;2.83;;;24.50;53.80;;;;;;5101454;28;20024;-54
2022/05/01 07:02:50;;;;;;;4.60;2.63;;;24.50;53.80;;;;;;5102180;28;20084;-51
2022/05/01 07:05:17;;;;;;;;;;;24.50;53.80;;;;;;5103775;28;20116;-58
2022/05/01 07:07:43;;;;;;;5.85;2.60;;;24.40;53.80;;;;;;5103597;28;19919;-56
2022/05/01 07:10:10;;;;;;;3.63;2.50;;;24.40;53.80;;;;;;5098643;28;20020;-57
2022/05/01 07:12:36;;;;;;;4.45;2.50;;;24.40;53.90;;;;;;5101897;28;20032;-56
2022/05/01 07:15:02;;;;;;;3.65;2.22;;;24.40;53.90;;;;;;5098423;28;20039;-57
2022/05/01 07:17:28;;;;;;;3.70;2.87;;;24.30;53.90;;;;;;5098077;28;20038;-53
2022/05/01 07:19:54;;;;;;;3.97;2.70;;;24.30;53.80;;;;;;5098616;28;20047;-56
2022/05/01 07:22:21;;;;;;;3.67;2.38;;;24.30;53.80;;;;;;5101875;28;20059;-55
2022/05/01 07:24:47;;;;;;;3.70;2.13;;;24.30;53.80;;;;;;5102950;28;20408;-55
2022/05/01 07:27:13;;;;;;;2.95;2.20;;;24.30;53.90;;;;;;5100076;28;20030;-53
2022/05/01 07:29:39;;;;;;;3.60;2.15;;;24.20;53.90;;;;;;5100728;28;20034;-54
2022/05/01 07:32:05;;;;;;;3.72;2.45;;;24.20;53.90;;;;;;5105337;28;20024;-57
2022/05/01 07:34:31;;;;;;;3.97;2.43;;;24.20;53.90;;;;;;5105347;28;20096;-53
2022/05/01 07:36:57;;;;;;;3.35;2.28;;;24.20;54.00;;;;;;5104939;28;20023;-51
2022/05/01 07:39:24;;;;;;;2.40;1.90;;;24.20;54.00;;;;;;5104394;28;20032;-53
2022/05/01 07:41:50;;;;;;;3.60;2.50;;;24.10;54.00;;;;;;5106879;28;20025;-51
2022/05/01 07:44:16;;;;;;;2.10;1.90;;;24.10;54.00;;;;;;5103104;28;20038;-49
2022/05/01 07:46:43;;;;;;;3.38;2.15;;;24.10;54.00;;;;;;5105081;28;20093;-55
2022/05/01 07:49:09;;;;;;;;;;;24.10;54.00;;;;;;5104995;28;20048;-56
2022/05/01 07:51:35;;;;;;;2.55;1.83;;;24.10;54.10;;;;;;5105068;28;19995;-55
2022/05/01 07:54:03;;;;;;;3.13;1.98;;;24.10;54.10;;;;;;5104294;28;20111;-55
2022/05/01 07:56:29;;;;;;;3.05;1.90;;;24.00;54.20;;;;;;5103242;28;20039;-56
2022/05/01 07:58:55;;;;;;;2.35;1.83;;;24.00;54.10;;;;;;5100784;28;20537;-56
2022/05/01 08:01:21;;;;;;;3.38;1.75;;;24.00;54.70;;;;;;5102499;28;20124;-55
2022/05/01 08:06:32;;;;;;;4.20;1.98;;;24.00;54.20;;;;;;5092153;28;20452;-58
2022/05/01 08:08:59;;;;;;;2.60;1.98;;;23.90;54.20;;;;;;5084229;28;20032;-58
2022/05/01 08:11:25;;;;;;;3.30;1.90;;;23.90;54.20;;;;;;5084674;28;20028;-58
2022/05/01 08:13:51;;;;;;;2.90;1.92;;;23.90;54.30;;;;;;5090272;28;20068;-56
2022/05/01 08:16:17;;;;;;;3.58;2.22;;;23.90;54.20;;;;;;5105239;28;20103;-58
2022/05/01 08:21:31;;;;;;;2.17;1.63;;;23.80;54.20;;;;;;5104956;28;20201;-56
2022/05/01 08:23:57;;;;;;;3.20;2.10;;;23.80;54.30;;;;;;5098743;28;20023;-53
2022/05/01 08:26:24;;;;;;;2.75;1.77;;;23.80;54.30;;;;;;5093589;28;20059;-51
2022/05/01 08:28:52;;;;;;;3.38;1.90;;;23.80;54.40;;;;;;5084121;28;20063;-53
2022/05/01 08:31:18;;;;;;;2.78;1.63;;;23.80;54.40;;;;;;5103173;28;20063;-51
2022/05/01 08:33:44;;;;;;;2.60;1.83;;;23.80;54.40;;;;;;5100579;28;20063;-54
2022/05/01 08:36:10;;;;;;;1.92;1.70;;;23.70;54.30;;;;;;5096889;28;20031;-53
2022/05/01 08:38:37;;;;;;;2.55;2.03;;;23.70;54.30;;;;;;5104105;28;20036;-57
2022/05/01 08:41:03;;;;;;;2.80;1.87;;;23.70;54.40;;;;;;5104077;28;20035;-55
2022/05/01 08:43:31;;;;;;;2.97;1.88;;;23.70;54.40;;;;;;5094152;28;20039;-51
2022/05/01 08:46:15;;;;;;;2.22;1.80;;;23.70;54.40;;;;;;5091084;28;20086;-52
2022/05/01 08:49:01;;;;;;;2.75;1.85;;;23.70;54.40;;;;;;5103332;28;20032;-53
2022/05/01 08:51:32;;;;;;;2.92;1.70;;;23.70;54.40;;;;;;5075444;28;20107;-53
2022/05/01 08:53:58;;;;;;;2.33;1.80;;;23.60;54.40;;;;;;5086485;28;20516;-53
2022/05/01 08:56:25;;;;;;;2.23;1.60;;;23.60;54.40;;;;;;5089281;28;20032;-52
2022/05/01 08:58:51;;;;;;;3.40;1.63;;;23.60;54.40;;;;;;5095994;28;20032;-53
2022/05/01 09:01:18;;;;;;;2.47;1.80;;;23.60;54.40;;;;;;5113363;28;20048;-54
2022/05/01 09:03:44;;;;;;;2.13;1.63;;;23.60;54.40;;;;;;5104099;28;20027;-55
2022/05/01 09:06:11;;;;;;;1.70;1.53;;;23.60;54.40;;;;;;5105559;28;20063;-52
2022/05/01 09:08:38;;;;;;;1.85;1.65;;;23.50;54.40;;;;;;5084639;28;20036;-50
2022/05/01 09:12:49;;;;;;;2.20;1.70;;;23.50;54.50;;;;;;5097381;28;20036;-50
2022/05/01 09:13:50;;;;;;;1.75;1.38;;;23.50;54.60;;;;;;5101319;28;20032;-52
2022/05/01 09:16:16;;;;;;;1.98;1.70;;;23.50;54.60;;;;;;5087635;28;20037;-52
2022/05/01 09:18:44;;;;;;;2.65;1.73;;;23.50;54.60;;;;;;5096236;28;20033;-50
2022/05/01 09:21:10;;;;;;;;;;;23.40;54.70;;;;;;5090609;28;20050;-57
2022/05/01 09:23:40;;;;;;;2.25;1.67;;;23.40;54.80;;;;;;5086036;28;20035;-55
2022/05/01 09:26:07;;;;;;;2.03;1.70;;;23.40;54.80;;;;;;5089842;28;20047;-55
2022/05/01 09:28:33;;;;;;;1.95;1.73;;;23.40;54.90;;;;;;5096628;28;20078;-55
2022/05/01 09:31:00;;;;;;;1.90;1.70;;;23.40;54.90;;;;;;5095532;28;20081;-53
2022/05/01 09:33:26;;;;;;;9.60;1.85;;;23.40;54.90;;;;;;5095886;28;20029;-54
2022/05/01 09:35:52;;;;;;;2.92;1.67;;;23.30;54.90;;;;;;5097868;28;20032;-54
2022/05/01 09:38:22;;;;;;;1.73;1.63;;;23.30;55.00;;;;;;5085960;28;20032;-50
2022/05/01 09:40:49;;;;;;;2.00;1.50;;;23.30;54.90;;;;;;5087775;28;20051;-52
2022/05/01 09:43:34;;;;;;;2.00;1.63;;;23.30;54.90;;;;;;5092725;28;20032;-51
2022/05/01 09:46:22;;;;;;;2.42;1.60;;;23.30;54.90;;;;;;5096483;28;20103;-49
2022/05/01 09:48:57;;;;;;;2.63;1.93;;;23.30;55.00;;;;;;5100721;28;20040;-52
2022/05/01 09:51:24;;;;;;;2.00;1.67;;;23.20;55.00;;;;;;5089650;28;20032;-49
2022/05/01 09:53:50;;;;;;;1.63;1.45;;;23.20;55.00;;;;;;5090390;28;20063;-53
2022/05/01 09:56:16;;;;;;;1.88;1.50;;;23.20;55.00;;;;;;5088826;28;20051;-50
2022/05/01 09:58:43;;;;;;;1.83;1.55;;;23.20;55.00;;;;;;5084617;28;20439;-50
2022/05/01 10:01:13;;;;;;;2.53;1.40;;;23.20;55.00;;;;;;5087348;28;20786;-53
2022/05/01 10:03:43;;;;;;;1.90;1.50;;;23.20;55.00;;;;;;5093501;28;20044;-51
2022/05/01 10:06:11;;;;;;;2.28;1.95;;;23.20;55.10;;;;;;5094319;28;20087;-53
2022/05/01 10:08:38;;;;;;;3.05;1.77;;;23.10;55.00;;;;;;5088798;28;20155;-49
2022/05/01 10:11:07;;;;;;;;;;;23.10;55.00;;;;;;5092092;28;20028;-50
2022/05/01 10:13:34;;;;;;;1.98;1.75;;;23.10;55.10;;;;;;5090994;28;19919;-48
2022/05/01 10:16:01;;;;;;;2.20;1.70;;;23.10;55.10;;;;;;5097178;28;20038;-49
2022/05/01 10:18:27;;;;;;;1.97;1.53;;;23.10;55.10;;;;;;5091614;28;20028;-48
2022/05/01 10:20:53;;;;;;;1.95;1.60;;;23.10;55.10;;;;;;5096672;28;20289;-48
2022/05/01 10:23:19;;;;;;;1.92;1.70;;;23.10;55.10;;;;;;5094164;28;20030;-50
2022/05/01 10:25:48;;;;;;;1.48;1.23;;;23.00;55.10;;;;;;5099782;28;20109;-49
2022/05/01 10:28:39;;;;;;;1.80;1.40;;;23.10;55.10;;;;;;5092294;28;20163;-50
2022/05/01 10:34:46;;;;;;;2.67;1.58;;;23.00;55.10;;;;;;5082229;28;20099;-49
2022/05/01 10:37:21;;;;;;;1.98;1.50;;;23.00;55.10;;;;;;5086811;28;20037;-50
2022/05/01 10:39:47;;;;;;;1.80;1.50;;;23.00;55.10;;;;;;5076473;28;20543;-49
2022/05/01 10:42:30;;;;;;;2.00;1.50;;;23.00;55.20;;;;;;5056616;28;20083;-51
2022/05/01 10:44:56;;;;;;;2.00;1.40;;;23.00;55.20;;;;;;5067074;28;20026;-52
2022/05/01 10:47:22;;;;;;;2.67;1.77;;;22.90;55.20;;;;;;5100778;28;20032;-51
2022/05/01 10:49:48;;;;;;;3.60;1.40;;;22.90;55.20;;;;;;5047078;28;20041;-51
2022/05/01 10:52:20;;;;;;;1.50;1.40;;;22.90;55.20;;;;;;5096528;28;20622;-49
2022/05/01 10:55:01;;;;;;;1.75;1.48;;;22.90;55.20;;;;;;5099825;28;20042;-51
2022/05/01 10:57:27;;;;;;;2.33;1.40;;;22.90;55.30;;;;;;5080549;28;20028;-51
2022/05/01 11:00:06;;;;;;;1.60;1.45;;;22.90;55.20;;;;;;5090178;28;20032;-50
2022/05/01 11:02:51;;;;;;;2.08;1.45;;;22.90;55.20;;;;;;5088838;28;20059;-51
2022/05/01 11:05:42;;;;;;;1.70;1.50;;;22.80;55.20;;;;;;5113767;28;20051;-53
2022/05/01 11:08:27;;;;;;;1.65;1.30;;;22.80;55.20;;;;;;5094863;28;20048;-52
2022/05/01 11:10:55;;;;;;;2.22;1.40;;;22.80;55.30;;;;;;5094784;28;20043;-49
2022/05/01 11:13:31;;;;;;;2.65;1.70;;;22.80;55.30;;;;;;5092449;28;20024;-48
2022/05/01 11:15:57;;;;;;;2.15;1.70;;;22.80;55.30;;;;;;5076230;28;20035;-49
2022/05/01 11:18:52;;;;;;;1.67;1.40;;;22.80;55.40;;;;;;5066132;28;20055;-48
2022/05/01 11:21:24;;;;;;;1.92;1.38;;;22.80;55.40;;;;;;5093691;28;20092;-56
2022/05/01 11:24:00;;;;;;;1.70;1.33;;;22.70;55.40;;;;;;5098660;28;20206;-50
2022/05/01 11:26:26;;;;;;;2.45;1.40;;;22.70;55.40;;;;;;5093222;28;20035;-50
2022/05/01 11:28:56;;;;;;;2.08;1.40;;;22.70;55.40;;;;;;5093015;28;20122;-51
2022/05/01 11:31:38;;;;;;;2.55;1.45;;;22.70;55.40;;;;;;5097509;28;20035;-51
2022/05/01 11:34:16;;;;;;;3.58;1.40;;;22.70;55.40;;;;;;5101813;28;20032;-50
2022/05/01 11:37:03;;;;;;;2.42;1.60;;;22.70;55.50;;;;;;5093327;28;20039;-49
2022/05/01 11:39:50;;;;;;;1.63;1.50;;;22.70;55.40;;;;;;5112006;28;20168;-53
2022/05/01 11:42:35;;;;;;;2.80;1.60;;;22.60;55.40;;;;;;5097367;28;20028;-50
2022/05/01 11:45:04;;;;;;;1.77;1.48;;;22.60;55.30;;;;;;5094640;28;20443;-50
2022/05/01 11:47:32;;;;;;;1.95;1.30;;;22.60;55.30;;;;;;5086903;28;20033;-51
2022/05/01 11:49:58;;;;;;;2.45;1.52;;;22.60;55.30;;;;;;5092661;28;20032;-50
2022/05/01 11:52:24;;;;;;;1.80;1.70;;;22.60;55.30;;;;;;5081966;28;20611;-50
2022/05/01 11:55:06;;;;;;;1.38;1.27;;;22.60;55.30;;;;;;5091354;28;20074;-54
2022/05/01 12:03:13;;;;;;;2.10;1.40;;;22.50;55.20;;;;;;5095243;28;20063;-53
2022/05/01 12:05:49;;;;;;;1.58;1.48;;;22.50;55.20;;;;;;5087070;28;20143;-53
2022/05/01 12:08:19;;;;;;;1.67;1.58;;;22.60;55.30;;;;;;5090915;28;20055;-50
2022/05/01 12:10:45;;;;;;;2.03;1.60;;;22.60;55.30;;;;;;5103209;28;20020;-51
2022/05/01 12:13:22;;;;;;;1.90;1.63;;;22.50;55.20;;;;;;5101946;28;20032;-51
2022/05/01 12:15:49;;;;;;;3.47;1.98;;;22.50;55.20;;;;;;5100753;28;20083;-51
2022/05/01 12:18:15;;;;;;;;;;;22.50;55.20;;;;;;5088659;28;20043;-53
2022/05/01 12:20:42;;;;;;;2.08;1.80;;;22.50;55.20;;;;;;5101593;28;19912;-55
2022/05/01 12:23:16;;;;;;;2.15;1.35;;;22.50;55.30;;;;;;5100605;28;20020;-54
2022/05/01 12:25:42;;;;;;;2.13;1.80;;;22.50;55.40;;;;;;5103046;28;20031;-52
2022/05/01 12:28:10;;;;;;;4.50;1.73;;;22.50;55.30;;;;;;5093823;28;20843;-49
2022/05/01 12:30:37;;;;;;;1.85;1.55;;;22.40;55.30;;;;;;5070988;28;20024;-50
2022/05/01 12:33:04;;;;;;;2.03;1.67;;;22.40;55.30;;;;;;5096791;28;20028;-52
2022/05/01 12:35:51;;;;;;;1.67;1.58;;;22.40;55.30;;;;;;5095321;28;20036;-52
2022/05/01 12:38:18;;;;;;;1.65;1.50;;;22.40;55.30;;;;;;5101460;28;20027;-52
2022/05/01 12:46:30;;;;;;;1.77;1.67;;;22.40;55.40;;;;;;5095341;28;20066;-49
2022/05/01 12:48:56;;;;;;;1.95;1.67;;;22.40;55.40;;;;;;5099034;28;20064;-52
2022/05/01 12:51:24;;;;;;;2.50;1.70;;;22.40;55.40;;;;;;5094042;28;20460;-53
2022/05/01 12:54:08;;;;;;;1.60;1.50;;;22.40;55.40;;;;;;5097191;28;20059;-51
2022/05/01 12:56:34;;;;;;;1.92;1.60;;;22.40;55.40;;;;;;5103432;28;20028;-48
2022/05/01 12:59:00;;;;;;;2.13;1.70;;;22.30;55.30;;;;;;5090735;28;20496;-51
2022/05/01 13:01:27;;;;;;;1.85;1.70;;;22.40;55.40;;;;;;5091030;28;20032;-53
2022/05/01 13:03:56;;;;;;;1.73;1.63;;;22.30;55.30;;;;;;5097337;28;20027;-54
2022/05/01 13:06:23;;;;;;;2.17;1.95;;;22.30;55.40;;;;;;5097042;28;20044;-53
2022/05/01 13:08:52;;;;;;;2.33;1.98;;;22.30;55.40;;;;;;5096545;28;20048;-50
2022/05/01 13:11:21;;;;;;;2.10;1.80;;;22.30;55.50;;;;;;5099176;28;20032;-49
2022/05/01 13:13:52;;;;;;;2.20;1.65;;;22.30;55.50;;;;;;5097073;28;20028;-50
2022/05/01 13:16:22;;;;;;;2.17;1.83;;;22.30;55.50;;;;;;5099249;28;20030;-51
2022/05/01 13:18:49;;;;;;;2.17;1.80;;;22.30;55.50;;;;;;5094835;28;20032;-52
2022/05/01 13:21:15;;;;;;;1.83;1.65;;;22.30;55.60;;;;;;5098595;28;20032;-49
2022/05/01 13:23:42;;;;;;;2.40;1.67;;;22.30;55.50;;;;;;5098148;28;20759;-52
2022/05/01 13:26:08;;;;;;;2.08;1.88;;;22.30;55.50;;;;;;5099562;28;20031;-53